Time;durP1;ratioP1;P1;durP2;ratioP2;P2;SDS_P1;SDS_P2;PMS_P1;PMS_P2;Temp;Humidity;BMP_temperature;BMP_pressure;BME280_temperature;BME280_humidity;BME280_pressure;Samples;Min_cycle;Max_cycle;Signal;HPM_P1;HPM_P2
2022/03/17 00:01:09;;;;;;;106.15;55.72;;;3.50;99.90;;;;;;5171403;28;20053;-74
2022/03/17 00:03:40;;;;;;;109.50;58.10;;;3.40;99.90;;;;;;5171083;28;20029;-74
2022/03/17 00:06:13;;;;;;;130.48;66.55;;;3.70;99.90;;;;;;5188680;28;20032;-73
2022/03/17 00:08:44;;;;;;;114.70;60.63;;;3.60;99.90;;;;;;5171524;28;20037;-73
2022/03/17 00:11:15;;;;;;;121.10;64.22;;;3.70;99.90;;;;;;5188799;28;20469;-74
2022/03/17 00:13:46;;;;;;;136.15;75.70;;;3.80;99.90;;;;;;5171169;28;20120;-73
2022/03/17 00:16:17;;;;;;;120.90;68.13;;;3.70;99.90;;;;;;5188850;28;20128;-74
2022/03/17 00:18:48;;;;;;;138.80;73.88;;;3.70;99.90;;;;;;5188754;28;20113;-73
2022/03/17 00:21:19;;;;;;;137.85;78.00;;;3.50;99.90;;;;;;5188479;28;20030;-73
2022/03/17 00:23:50;;;;;;;133.30;75.75;;;3.70;99.90;;;;;;5188666;28;20053;-73
2022/03/17 00:26:21;;;;;;;126.30;75.53;;;3.60;99.90;;;;;;5188518;28;20030;-73
2022/03/17 00:28:52;;;;;;;129.68;72.80;;;3.70;99.90;;;;;;5188467;28;20030;-73
2022/03/17 00:31:23;;;;;;;119.57;65.50;;;3.70;99.90;;;;;;5188402;28;20038;-74
2022/03/17 00:33:54;;;;;;;129.80;77.40;;;3.80;99.90;;;;;;5188541;28;20016;-74
2022/03/17 00:36:25;;;;;;;139.18;78.28;;;3.80;99.90;;;;;;5188329;28;20036;-72
2022/03/17 00:38:56;;;;;;;126.22;68.82;;;3.70;99.90;;;;;;5188355;28;20029;-74
2022/03/17 00:41:27;;;;;;;154.77;81.95;;;3.60;99.90;;;;;;5188362;28;20045;-73
2022/03/17 00:43:58;;;;;;;146.65;80.80;;;3.50;99.90;;;;;;5188085;28;20505;-75
2022/03/17 00:46:28;;;;;;;140.82;76.72;;;3.40;99.90;;;;;;5188083;28;20022;-72
2022/03/17 00:48:59;;;;;;;133.75;74.82;;;3.50;99.90;;;;;;5188006;28;20097;-73
2022/03/17 00:51:31;;;;;;;119.63;63.38;;;3.50;99.90;;;;;;5170363;28;20366;-75
2022/03/17 00:54:01;;;;;;;126.93;68.55;;;3.50;99.90;;;;;;5188016;28;20430;-75
2022/03/17 00:56:32;;;;;;;120.38;65.45;;;3.60;99.90;;;;;;5188013;28;20111;-73
2022/03/17 00:59:03;;;;;;;110.43;61.50;;;3.50;99.90;;;;;;5170043;28;20030;-74
2022/03/17 01:01:35;;;;;;;118.28;62.38;;;3.50;99.90;;;;;;5187453;28;20042;-74
2022/03/17 01:04:05;;;;;;;106.30;57.50;;;3.50;99.90;;;;;;5170260;28;20026;-73
2022/03/17 01:06:36;;;;;;;111.85;57.08;;;3.60;99.90;;;;;;5187718;28;20037;-74
2022/03/17 01:09:07;;;;;;;104.07;58.92;;;3.50;99.90;;;;;;5170096;28;20026;-73
2022/03/17 01:11:38;;;;;;;121.70;63.60;;;3.50;99.90;;;;;;5187841;28;20025;-73
2022/03/17 01:14:24;;;;;;;117.85;61.53;;;3.20;99.90;;;;;;5187592;28;20022;-75
2022/03/17 01:17:04;;;;;;;120.60;61.70;;;3.20;99.90;;;;;;5187564;28;20022;-75
2022/03/17 01:19:39;;;;;;;122.90;64.00;;;3.20;99.90;;;;;;5187555;28;20060;-75
2022/03/17 01:22:14;;;;;;;122.78;63.08;;;3.10;99.90;;;;;;5187352;28;20022;-75
2022/03/17 01:24:51;;;;;;;115.70;59.88;;;3.20;99.90;;;;;;5187447;28;20026;-75
2022/03/17 01:27:23;;;;;;;121.38;59.20;;;3.20;99.90;;;;;;5187343;28;20026;-74
2022/03/17 01:29:54;;;;;;;106.53;57.20;;;3.10;99.90;;;;;;5187172;28;20441;-74
2022/03/17 01:32:25;;;;;;;121.47;61.75;;;3.30;99.90;;;;;;5187349;28;20120;-72
2022/03/17 01:34:56;;;;;;;118.70;60.15;;;3.10;99.90;;;;;;5187319;28;20473;-74
2022/03/17 01:37:27;;;;;;;116.60;59.20;;;3.10;99.90;;;;;;5187160;28;20022;-72
2022/03/17 01:39:58;;;;;;;112.90;57.60;;;3.10;99.90;;;;;;5169532;28;20034;-73
2022/03/17 01:42:29;;;;;;;115.85;59.40;;;2.90;99.90;;;;;;5169143;28;20037;-74
2022/03/17 01:45:00;;;;;;;110.63;57.83;;;3.00;99.90;;;;;;5169559;28;20069;-74
2022/03/17 01:47:32;;;;;;;118.88;58.13;;;2.90;99.90;;;;;;5187005;28;20053;-73
2022/03/17 01:50:08;;;;;;;113.75;56.85;;;3.00;99.90;;;;;;5169338;28;20399;-72
2022/03/17 01:52:39;;;;;;;97.03;51.55;;;3.00;99.90;;;;;;5186957;28;20018;-72
2022/03/17 01:55:11;;;;;;;112.20;57.00;;;3.00;99.90;;;;;;5186968;28;20105;-72
2022/03/17 01:57:42;;;;;;;111.40;54.63;;;3.00;99.90;;;;;;5186862;28;20033;-74
2022/03/17 02:00:17;;;;;;;105.32;52.17;;;3.00;99.90;;;;;;5168864;28;20140;-72
2022/03/17 02:02:50;;;;;;;97.57;54.28;;;3.00;99.90;;;;;;5169364;28;20496;-74
2022/03/17 02:05:21;;;;;;;94.35;51.75;;;3.00;99.90;;;;;;5186681;28;20029;-74
2022/03/17 02:07:53;;;;;;;84.35;48.10;;;2.90;99.90;;;;;;5186744;28;20026;-73
2022/03/17 02:10:24;;;;;;;96.93;48.45;;;3.00;99.90;;;;;;5186840;28;20034;-74
2022/03/17 02:13:10;;;;;;;79.82;43.17;;;2.60;99.90;;;;;;5185798;28;20432;-73
2022/03/17 02:15:40;;;;;;;85.57;45.90;;;2.70;99.90;;;;;;5186671;28;20029;-73
2022/03/17 02:18:16;;;;;;;77.15;44.90;;;2.90;99.90;;;;;;5186659;28;20045;-74
2022/03/17 02:20:48;;;;;;;75.78;42.03;;;2.90;99.90;;;;;;5186623;28;20038;-74
2022/03/17 02:26:08;;;;;;;76.35;40.58;;;3.00;99.90;;;;;;5186503;28;20022;-73
2022/03/17 02:28:39;;;;;;;78.03;45.53;;;3.10;99.90;;;;;;5186411;28;20038;-73
2022/03/17 02:31:11;;;;;;;87.03;46.67;;;3.00;99.90;;;;;;5186592;28;20026;-74
2022/03/17 02:33:42;;;;;;;71.93;39.22;;;2.90;99.90;;;;;;5168810;28;20481;-72
2022/03/17 02:36:13;;;;;;;66.75;38.95;;;3.00;99.90;;;;;;5186278;28;20018;-74
2022/03/17 02:38:44;;;;;;;77.35;41.88;;;3.10;99.90;;;;;;5186258;28;20038;-73
2022/03/17 02:41:22;;;;;;;73.28;40.20;;;2.90;99.90;;;;;;5186290;28;20021;-72
2022/03/17 02:43:53;;;;;;;77.60;43.05;;;2.80;99.90;;;;;;5186165;28;20041;-74
2022/03/17 02:46:25;;;;;;;76.28;43.05;;;2.90;99.90;;;;;;5186295;28;20025;-74
2022/03/17 02:48:56;;;;;;;80.72;45.58;;;3.00;99.90;;;;;;5168681;28;20128;-72
2022/03/17 02:51:27;;;;;;;78.15;44.65;;;2.90;99.90;;;;;;5168541;28;20168;-73
2022/03/17 02:53:58;;;;;;;81.18;47.03;;;3.00;99.90;;;;;;5186139;28;20025;-73
2022/03/17 02:56:29;;;;;;;78.93;44.80;;;2.90;99.90;;;;;;5186358;28;20018;-73
2022/03/17 02:58:59;;;;;;;98.50;49.05;;;3.10;99.90;;;;;;5185676;28;20378;-73
2022/03/17 03:01:30;;;;;;;80.47;43.80;;;3.00;99.90;;;;;;5168354;28;20042;-72
2022/03/17 03:04:01;;;;;;;72.75;39.78;;;3.10;99.90;;;;;;5186099;28;20029;-73
2022/03/17 03:06:32;;;;;;;81.88;46.50;;;3.10;99.90;;;;;;5168176;28;20033;-72
2022/03/17 03:09:04;;;;;;;72.50;41.28;;;3.10;99.90;;;;;;5185597;28;20036;-74
2022/03/17 03:11:34;;;;;;;84.57;44.90;;;3.10;99.90;;;;;;5186078;28;20153;-74
2022/03/17 03:14:09;;;;;;;83.00;44.33;;;3.20;99.90;;;;;;5186074;28;20104;-72
2022/03/17 03:16:40;;;;;;;75.57;43.35;;;3.20;99.90;;;;;;5185910;28;20390;-73
2022/03/17 03:19:10;;;;;;;73.32;40.92;;;3.10;99.90;;;;;;5185812;28;20018;-73
2022/03/17 03:21:43;;;;;;;77.85;41.90;;;3.20;99.90;;;;;;5185987;28;20476;-73
2022/03/17 03:24:15;;;;;;;81.88;43.47;;;3.30;99.90;;;;;;5186714;28;20153;-73
2022/03/17 03:26:46;;;;;;;81.60;45.40;;;3.20;99.90;;;;;;5189804;28;20394;-73
2022/03/17 03:29:23;;;;;;;80.93;45.22;;;3.20;99.90;;;;;;5189526;28;20026;-73
2022/03/17 03:31:57;;;;;;;82.80;43.67;;;3.30;99.90;;;;;;5189538;28;20037;-74
2022/03/17 03:34:28;;;;;;;75.40;42.88;;;3.20;99.90;;;;;;5189642;28;20022;-74
2022/03/17 03:39:58;;;;;;;78.45;44.92;;;3.30;99.90;;;;;;5189550;28;20394;-73
2022/03/17 03:42:28;;;;;;;80.68;45.28;;;3.30;99.90;;;;;;5189480;28;20032;-73
2022/03/17 03:44:59;;;;;;;79.72;44.42;;;3.40;99.90;;;;;;5189319;28;20385;-73
2022/03/17 03:47:30;;;;;;;88.32;44.38;;;3.30;99.90;;;;;;5171815;28;20037;-75
2022/03/17 03:50:02;;;;;;;86.82;47.47;;;3.30;99.90;;;;;;5189299;28;20029;-74
2022/03/17 03:52:33;;;;;;;80.60;44.75;;;3.30;99.90;;;;;;5189258;28;20378;-73
2022/03/17 03:55:04;;;;;;;78.57;43.35;;;3.30;99.90;;;;;;5189150;28;20116;-73
2022/03/17 03:57:35;;;;;;;87.53;46.40;;;3.30;99.90;;;;;;5189185;28;20026;-73
2022/03/17 04:00:29;;;;;;;78.97;43.45;;;3.40;99.90;;;;;;5188726;28;20119;-73
2022/03/17 04:02:59;;;;;;;80.63;45.03;;;3.50;99.90;;;;;;5188194;28;20131;-73
2022/03/17 04:05:33;;;;;;;86.03;48.33;;;3.30;99.90;;;;;;5189038;28;20088;-74
2022/03/17 04:08:04;;;;;;;85.50;44.88;;;3.50;99.90;;;;;;5171305;28;20045;-72
2022/03/17 04:10:35;;;;;;;93.05;46.25;;;3.50;99.90;;;;;;5188969;28;20442;-72
2022/03/17 04:13:06;;;;;;;93.35;46.35;;;3.50;99.90;;;;;;5188724;28;20041;-73
2022/03/17 04:15:37;;;;;;;82.65;45.40;;;3.60;99.90;;;;;;5188882;28;20394;-74
2022/03/17 04:18:08;;;;;;;98.03;53.10;;;3.60;99.90;;;;;;5188858;28;20036;-73
2022/03/17 04:20:39;;;;;;;83.60;43.60;;;3.60;99.90;;;;;;5188604;28;20505;-72
2022/03/17 04:23:09;;;;;;;100.50;54.42;;;3.50;99.90;;;;;;5188603;28;20029;-74
2022/03/17 04:25:40;;;;;;;95.28;53.25;;;3.60;99.90;;;;;;5188750;28;20026;-74
2022/03/17 04:28:11;;;;;;;92.03;49.03;;;3.80;99.90;;;;;;5188604;28;20030;-74
2022/03/17 04:30:42;;;;;;;107.15;51.85;;;3.60;99.90;;;;;;5188611;28;20022;-73
2022/03/17 04:33:13;;;;;;;96.35;52.17;;;3.60;99.90;;;;;;5188431;28;20030;-74
2022/03/17 04:35:44;;;;;;;92.43;51.45;;;3.70;99.90;;;;;;5187589;28;20018;-73
2022/03/17 04:38:16;;;;;;;93.95;52.80;;;3.70;99.90;;;;;;5188480;28;20034;-73
2022/03/17 04:40:49;;;;;;;107.18;56.17;;;3.70;99.90;;;;;;5170629;28;20034;-73
2022/03/17 04:43:20;;;;;;;102.47;52.75;;;3.80;99.90;;;;;;5170511;28;20025;-73
2022/03/17 04:45:51;;;;;;;106.13;54.47;;;3.80;99.90;;;;;;5170619;28;20363;-74
2022/03/17 04:48:22;;;;;;;112.75;55.10;;;3.70;99.90;;;;;;5187993;28;20037;-73
2022/03/17 04:50:53;;;;;;;101.68;53.60;;;3.80;99.90;;;;;;5188123;28;20037;-74
2022/03/17 04:53:27;;;;;;;92.03;47.67;;;3.80;99.90;;;;;;5187758;28;20029;-73
2022/03/17 04:56:17;;;;;;;86.32;43.65;;;3.80;99.90;;;;;;5187939;28;20030;-72
2022/03/17 04:58:48;;;;;;;;;;;3.90;99.90;;;;;;5188180;28;20038;-73
2022/03/17 05:01:19;;;;;;;90.07;49.10;;;3.90;99.90;;;;;;5185381;28;20406;-74
2022/03/17 05:03:50;;;;;;;96.70;50.30;;;3.90;99.90;;;;;;5187813;28;20028;-74
2022/03/17 05:06:21;;;;;;;95.53;49.65;;;4.00;99.90;;;;;;5187723;28;20455;-74
2022/03/17 05:08:52;;;;;;;91.28;47.50;;;3.90;99.90;;;;;;5187564;28;20355;-72
2022/03/17 05:11:23;;;;;;;85.03;47.00;;;4.00;99.90;;;;;;5187548;28;20062;-74
2022/03/17 05:13:54;;;;;;;88.70;45.25;;;3.90;99.90;;;;;;5187573;28;20018;-74
2022/03/17 05:16:24;;;;;;;91.88;48.95;;;4.00;99.90;;;;;;5187578;28;20371;-74
2022/03/17 05:18:55;;;;;;;92.78;47.40;;;4.00;99.90;;;;;;5180833;28;20041;-75
2022/03/17 05:21:26;;;;;;;82.57;43.47;;;4.10;99.90;;;;;;5181913;28;20438;-73
2022/03/17 05:23:57;;;;;;;95.20;47.97;;;4.20;99.90;;;;;;5187320;28;20069;-74
2022/03/17 05:26:28;;;;;;;97.10;51.95;;;4.20;99.90;;;;;;5187277;28;20044;-72
2022/03/17 05:28:58;;;;;;;104.03;56.30;;;4.30;99.90;;;;;;5187175;28;20037;-73
2022/03/17 05:31:29;;;;;;;107.90;56.35;;;4.30;99.90;;;;;;5187445;28;20097;-72
2022/03/17 05:34:00;;;;;;;91.13;49.75;;;4.20;99.90;;;;;;5187050;28;20036;-72
2022/03/17 05:36:31;;;;;;;93.43;48.67;;;4.30;99.90;;;;;;5186946;28;20049;-72
2022/03/17 05:39:02;;;;;;;80.38;45.83;;;4.40;99.90;;;;;;5187195;28;20042;-73
2022/03/17 05:41:33;;;;;;;95.95;52.67;;;4.50;99.90;;;;;;5169695;28;20470;-73
2022/03/17 05:44:04;;;;;;;97.40;51.85;;;4.60;99.90;;;;;;5181736;28;20071;-73
2022/03/17 05:46:35;;;;;;;94.43;51.88;;;4.60;99.90;;;;;;5179914;28;20113;-74
2022/03/17 05:49:05;;;;;;;88.28;48.05;;;4.70;99.90;;;;;;5186708;28;20460;-74
2022/03/17 05:51:37;;;;;;;104.28;58.17;;;4.70;99.90;;;;;;5183423;28;20030;-74
2022/03/17 05:54:08;;;;;;;107.38;57.80;;;4.80;99.90;;;;;;5186237;28;20021;-73
2022/03/17 05:56:39;;;;;;;121.45;65.47;;;4.90;99.90;;;;;;5169302;28;20061;-73
2022/03/17 05:59:10;;;;;;;120.20;64.45;;;4.90;99.90;;;;;;5186524;28;20054;-73
2022/03/17 06:01:40;;;;;;;116.28;66.07;;;4.90;99.90;;;;;;5175804;28;20069;-75
2022/03/17 06:04:11;;;;;;;109.10;60.58;;;4.90;99.90;;;;;;5163339;28;20389;-74
2022/03/17 06:06:42;;;;;;;112.85;60.92;;;4.90;99.90;;;;;;5186586;28;20068;-73
2022/03/17 06:09:13;;;;;;;114.20;60.70;;;4.90;99.90;;;;;;5186294;28;20539;-74
2022/03/17 06:11:44;;;;;;;151.13;85.05;;;4.90;99.90;;;;;;5186643;28;20097;-73
2022/03/17 06:14:14;;;;;;;139.52;79.35;;;4.80;99.90;;;;;;5186239;28;20433;-75
2022/03/17 06:16:45;;;;;;;161.70;96.13;;;4.90;99.90;;;;;;5184693;28;20026;-76
2022/03/17 06:19:16;;;;;;;158.70;91.72;;;4.80;99.90;;;;;;5185968;28;20076;-75
2022/03/17 06:21:47;;;;;;;134.90;76.38;;;4.90;99.90;;;;;;5186416;28;20025;-74
2022/03/17 06:24:17;;;;;;;126.00;71.32;;;4.90;99.90;;;;;;5186286;28;20030;-75
2022/03/17 06:26:49;;;;;;;121.95;73.28;;;5.00;99.90;;;;;;5186352;28;20101;-73
2022/03/17 06:29:21;;;;;;;120.05;69.97;;;4.90;99.90;;;;;;5180122;28;20034;-75
2022/03/17 06:31:52;;;;;;;112.45;64.82;;;5.10;99.90;;;;;;5163167;28;20053;-74
2022/03/17 06:34:23;;;;;;;106.55;62.33;;;5.20;99.90;;;;;;5181914;28;20049;-75
2022/03/17 06:36:54;;;;;;;106.03;64.47;;;5.30;99.90;;;;;;5163751;28;20029;-75
2022/03/17 06:39:24;;;;;;;99.28;59.25;;;5.40;99.90;;;;;;5181559;28;20038;-74
2022/03/17 06:41:55;;;;;;;94.25;56.47;;;5.40;99.90;;;;;;5181180;28;20359;-74
2022/03/17 06:44:26;;;;;;;96.53;55.45;;;5.40;99.90;;;;;;5181846;28;20030;-74
2022/03/17 06:46:57;;;;;;;92.22;56.88;;;5.40;99.90;;;;;;5181674;28;20109;-76
2022/03/17 06:49:28;;;;;;;86.90;53.28;;;5.60;99.90;;;;;;5181300;28;20037;-76
2022/03/17 06:51:59;;;;;;;95.57;56.22;;;5.80;99.90;;;;;;5181376;28;20355;-73
2022/03/17 06:54:29;;;;;;;78.55;48.40;;;5.90;99.90;;;;;;5163725;28;20034;-75
2022/03/17 06:57:00;;;;;;;77.80;46.05;;;6.20;99.90;;;;;;5178979;28;20473;-73
2022/03/17 06:59:31;;;;;;;73.15;44.50;;;6.40;99.90;;;;;;5182598;28;20695;-73
2022/03/17 07:02:02;;;;;;;69.90;43.85;;;6.50;99.90;;;;;;5187809;28;20742;-73
2022/03/17 07:04:33;;;;;;;72.03;44.05;;;6.70;99.90;;;;;;5188837;28;20029;-73
2022/03/17 07:07:05;;;;;;;70.63;42.22;;;7.30;99.90;;;;;;5188574;28;20022;-74
2022/03/17 07:09:36;;;;;;;63.65;38.42;;;7.50;99.90;;;;;;5168224;28;20045;-75
2022/03/17 07:12:09;;;;;;;61.45;38.70;;;7.70;99.90;;;;;;5183828;28;20020;-75
2022/03/17 07:14:40;;;;;;;60.95;38.92;;;7.80;99.90;;;;;;5184381;28;20037;-74
2022/03/17 07:17:11;;;;;;;54.60;35.78;;;7.70;99.90;;;;;;5167759;28;20084;-75
2022/03/17 07:19:42;;;;;;;64.38;36.78;;;7.50;99.90;;;;;;5184953;28;20433;-75
2022/03/17 07:22:12;;;;;;;55.70;33.50;;;7.20;99.90;;;;;;5185052;28;20579;-74
2022/03/17 07:24:43;;;;;;;44.05;29.90;;;7.20;99.90;;;;;;5184674;28;20108;-75
2022/03/17 07:27:14;;;;;;;38.53;26.17;;;7.50;99.90;;;;;;5167672;28;20390;-74
2022/03/17 07:29:45;;;;;;;38.65;26.75;;;7.50;99.90;;;;;;5184728;28;20038;-75
2022/03/17 07:32:18;;;;;;;40.05;24.80;;;7.30;99.90;;;;;;5185200;28;20034;-75
2022/03/17 07:34:49;;;;;;;41.90;28.65;;;7.30;99.90;;;;;;5184764;28;20034;-75
2022/03/17 07:37:20;;;;;;;38.15;27.27;;;7.30;99.90;;;;;;5184744;28;20081;-74
2022/03/17 07:39:57;;;;;;;42.35;26.83;;;7.30;99.90;;;;;;5184018;28;20117;-76
2022/03/17 07:42:28;;;;;;;54.25;32.92;;;7.30;99.90;;;;;;5182040;28;20029;-76
2022/03/17 07:44:58;;;;;;;41.60;26.88;;;7.70;99.90;;;;;;5184745;28;20022;-75
2022/03/17 07:47:29;;;;;;;50.60;35.03;;;7.50;99.90;;;;;;5184269;28;20129;-75
2022/03/17 07:50:01;;;;;;;39.38;27.73;;;7.60;99.90;;;;;;5164635;28;20071;-75
2022/03/17 07:52:31;;;;;;;43.58;27.23;;;7.80;99.90;;;;;;5184145;28;20466;-76
2022/03/17 07:55:03;;;;;;;50.03;34.40;;;7.70;99.90;;;;;;5185178;28;20034;-74
2022/03/17 07:57:37;;;;;;;41.13;27.67;;;8.00;99.90;;;;;;5185084;28;20030;-76
2022/03/17 08:00:12;;;;;;;41.08;26.52;;;8.10;99.90;;;;;;5163499;28;20069;-74
2022/03/17 08:02:43;;;;;;;35.13;25.08;;;8.30;99.90;;;;;;5163864;28;20497;-75
2022/03/17 08:05:15;;;;;;;43.97;29.88;;;8.40;99.90;;;;;;5163031;28;20034;-75
2022/03/17 08:07:48;;;;;;;37.20;22.05;;;8.50;99.90;;;;;;5164500;28;20057;-76
2022/03/17 08:10:19;;;;;;;32.97;21.45;;;8.40;99.90;;;;;;5163935;28;20392;-75
2022/03/17 08:12:50;;;;;;;42.88;24.80;;;8.40;99.90;;;;;;5162959;28;20026;-74
2022/03/17 08:15:22;;;;;;;44.53;27.90;;;8.30;99.90;;;;;;5164435;28;20034;-74
2022/03/17 08:17:53;;;;;;;40.70;27.90;;;8.30;99.90;;;;;;5162890;28;20389;-73
2022/03/17 08:20:25;;;;;;;46.45;29.45;;;8.00;99.90;;;;;;5162791;28;20046;-73
2022/03/17 08:22:56;;;;;;;47.83;29.52;;;7.90;99.90;;;;;;5162554;28;20364;-74
2022/03/17 08:25:27;;;;;;;49.38;30.05;;;8.20;99.90;;;;;;5164373;28;20065;-73
2022/03/17 08:28:01;;;;;;;55.63;34.53;;;8.40;99.90;;;;;;5163943;28;20046;-74
2022/03/17 08:30:32;;;;;;;51.58;31.20;;;8.30;99.90;;;;;;5161938;28;20037;-73
2022/03/17 08:33:03;;;;;;;48.63;30.30;;;8.30;99.90;;;;;;5164331;28;20011;-74
2022/03/17 08:35:34;;;;;;;49.53;29.77;;;8.10;99.90;;;;;;5163753;28;20030;-74
2022/03/17 08:38:05;;;;;;;47.72;31.98;;;8.00;99.90;;;;;;5162328;28;20101;-75
2022/03/17 08:40:45;;;;;;;50.45;33.67;;;8.20;99.90;;;;;;5162923;28;20120;-73
2022/03/17 08:43:15;;;;;;;51.00;32.47;;;8.30;99.90;;;;;;5161982;28;20514;-74
2022/03/17 08:51:32;;;;;;;54.10;30.15;;;7.80;99.90;;;;;;5162159;28;20030;-74
2022/03/17 08:54:03;;;;;;;40.95;25.08;;;7.80;99.90;;;;;;5163145;28;20052;-75
2022/03/17 08:56:34;;;;;;;50.17;34.00;;;7.80;99.90;;;;;;5160698;28;20026;-74
2022/03/17 08:59:06;;;;;;;56.50;30.48;;;8.00;99.90;;;;;;5165093;28;20418;-75
2022/03/17 09:01:38;;;;;;;43.80;27.90;;;8.20;99.90;;;;;;5183371;28;20029;-74
2022/03/17 09:04:08;;;;;;;37.13;26.02;;;8.40;99.90;;;;;;5183738;28;20184;-74
2022/03/17 09:06:43;;;;;;;38.85;26.42;;;8.30;99.90;;;;;;5182909;28;20109;-73
2022/03/17 09:09:14;;;;;;;40.20;26.80;;;8.30;99.90;;;;;;5166181;28;20034;-74
2022/03/17 09:11:47;;;;;;;25.63;16.80;;;8.10;99.90;;;;;;5183553;28;20036;-75
2022/03/17 09:14:18;;;;;;;20.83;14.52;;;7.60;99.90;;;;;;5183560;28;20469;-76
2022/03/17 09:16:49;;;;;;;17.98;10.95;;;7.80;99.90;;;;;;5183331;28;20072;-74
2022/03/17 09:19:20;;;;;;;17.38;11.18;;;8.70;99.90;;;;;;5183419;28;20033;-74
2022/03/17 09:21:51;;;;;;;15.00;8.80;;;8.40;99.90;;;;;;5182599;28;20025;-75
2022/03/17 09:24:23;;;;;;;18.00;9.90;;;7.80;99.90;;;;;;5183466;28;20505;-75
2022/03/17 09:26:54;;;;;;;12.38;7.40;;;7.90;99.90;;;;;;5181504;28;20374;-75
2022/03/17 09:29:28;;;;;;;16.30;8.35;;;7.80;99.90;;;;;;5180540;28;20034;-75
2022/03/17 09:32:00;;;;;;;15.38;7.30;;;7.70;99.90;;;;;;5165459;28;20037;-76
2022/03/17 09:34:32;;;;;;;16.67;6.13;;;7.80;99.90;;;;;;5182785;28;20363;-75
2022/03/17 09:37:04;;;;;;;14.05;6.35;;;7.30;99.90;;;;;;5182675;28;20025;-75
2022/03/17 09:39:47;;;;;;;8.30;4.07;;;7.10;99.90;;;;;;5182796;28;20045;-74
2022/03/17 09:42:20;;;;;;;12.77;4.60;;;7.30;99.90;;;;;;5182907;28;20042;-75
2022/03/17 09:44:53;;;;;;;9.07;3.67;;;7.40;99.90;;;;;;5182649;28;20038;-75
2022/03/17 09:47:27;;;;;;;8.35;3.40;;;7.00;99.90;;;;;;5183372;28;20037;-76
2022/03/17 09:50:00;;;;;;;7.28;3.35;;;7.10;99.90;;;;;;5181533;28;20018;-75
2022/03/17 09:52:32;;;;;;;12.18;4.40;;;7.30;99.90;;;;;;5182358;28;20072;-75
2022/03/17 09:55:06;;;;;;;10.05;4.63;;;7.40;99.90;;;;;;5183135;28;20486;-74
2022/03/17 09:57:38;;;;;;;8.95;4.55;;;7.50;99.90;;;;;;5182732;28;20478;-76
2022/03/17 10:00:12;;;;;;;8.35;3.67;;;7.40;99.90;;;;;;5182233;28;20080;-75
2022/03/17 10:02:42;;;;;;;11.90;4.60;;;7.20;99.90;;;;;;5182558;28;20025;-75
2022/03/17 10:05:14;;;;;;;11.98;4.45;;;7.10;99.90;;;;;;5182620;28;20034;-74
2022/03/17 10:07:47;;;;;;;10.15;4.75;;;6.60;99.90;;;;;;5182415;28;20847;-75
2022/03/17 10:10:17;;;;;;;11.45;4.30;;;6.40;99.90;;;;;;5182685;28;20018;-75
2022/03/17 10:13:06;;;;;;;11.02;4.13;;;6.40;99.90;;;;;;5182328;28;20151;-75
2022/03/17 10:15:37;;;;;;;8.55;5.28;;;6.30;99.90;;;;;;5182040;28;20018;-75
2022/03/17 10:18:26;;;;;;;12.40;3.70;;;6.50;99.90;;;;;;5182451;28;21289;-73
2022/03/17 10:21:24;;;;;;;4.95;1.63;;;6.50;99.90;;;;;;5181988;28;20092;-73
2022/03/17 10:23:59;;;;;;;7.53;1.80;;;6.40;99.90;;;;;;5181644;28;20016;-74
2022/03/17 10:26:50;;;;;;;10.35;1.85;;;6.30;99.90;;;;;;5178581;28;20029;-75
2022/03/17 10:29:25;;;;;;;8.23;2.42;;;6.30;99.90;;;;;;5181983;28;20029;-75
2022/03/17 10:32:07;;;;;;;12.57;2.35;;;6.60;99.90;;;;;;5180934;28;20065;-75
2022/03/17 10:34:56;;;;;;;11.40;1.90;;;6.40;99.90;;;;;;5180348;28;20038;-75
2022/03/17 10:37:30;;;;;;;5.30;1.40;;;6.30;99.90;;;;;;5162487;28;20041;-75
2022/03/17 10:40:07;;;;;;;7.63;1.70;;;6.30;99.90;;;;;;5181442;28;20025;-76
2022/03/17 10:42:38;;;;;;;8.18;1.55;;;6.20;99.90;;;;;;5181714;28;20026;-75
2022/03/17 10:45:10;;;;;;;7.05;1.33;;;6.00;99.90;;;;;;5163832;28;20033;-74
2022/03/17 10:47:45;;;;;;;6.80;2.85;;;5.80;99.90;;;;;;5164247;28;20033;-75
2022/03/17 10:50:19;;;;;;;5.00;1.60;;;6.10;99.90;;;;;;5182046;28;20041;-74
2022/03/17 10:52:58;;;;;;;7.00;1.95;;;5.70;99.90;;;;;;5179856;28;20033;-74
2022/03/17 10:55:33;;;;;;;9.80;2.30;;;5.80;99.90;;;;;;5163563;28;20037;-73
2022/03/17 10:58:21;;;;;;;11.30;2.30;;;5.60;99.90;;;;;;5162572;28;20022;-74
2022/03/17 11:00:56;;;;;;;7.50;2.28;;;5.50;99.90;;;;;;5181585;28;20134;-74
2022/03/17 11:03:29;;;;;;;9.55;2.60;;;5.40;99.90;;;;;;5177932;28;20081;-75
2022/03/17 11:06:00;;;;;;;8.68;3.08;;;5.30;99.90;;;;;;5164345;28;20600;-75
2022/03/17 11:08:32;;;;;;;4.93;2.03;;;5.50;99.90;;;;;;5182296;28;20026;-76
2022/03/17 11:11:03;;;;;;;10.57;1.92;;;5.30;99.90;;;;;;5182118;28;20054;-75
2022/03/17 11:13:34;;;;;;;10.18;3.25;;;5.20;99.90;;;;;;5181135;28;20030;-74
2022/03/17 11:16:11;;;;;;;9.52;2.38;;;5.20;99.90;;;;;;5181881;28;20025;-75
2022/03/17 11:18:43;;;;;;;9.52;3.05;;;5.20;99.90;;;;;;5164058;28;20038;-75
2022/03/17 11:21:16;;;;;;;17.92;5.53;;;5.30;99.90;;;;;;5164175;28;20034;-75
2022/03/17 11:24:00;;;;;;;14.82;5.13;;;5.30;99.90;;;;;;5179636;28;20528;-75
2022/03/17 11:26:39;;;;;;;12.68;5.75;;;5.10;99.90;;;;;;5181507;28;20102;-74
2022/03/17 11:29:14;;;;;;;17.75;6.25;;;5.00;99.90;;;;;;5181666;28;20030;-74
2022/03/17 11:32:01;;;;;;;22.65;8.70;;;4.80;99.90;;;;;;5181512;28;20124;-76
2022/03/17 11:34:48;;;;;;;10.02;3.30;;;4.80;99.90;;;;;;5181070;28;20075;-76
2022/03/17 11:37:31;;;;;;;9.65;5.07;;;4.80;99.90;;;;;;5181517;28;20477;-75
2022/03/17 11:40:11;;;;;;;9.90;2.92;;;4.90;99.90;;;;;;5164305;28;20113;-76
2022/03/17 11:43:03;;;;;;;12.75;3.60;;;4.80;99.90;;;;;;5179148;28;20492;-76
2022/03/17 11:45:37;;;;;;;10.07;3.80;;;4.80;99.90;;;;;;5181187;28;20034;-74
2022/03/17 11:48:10;;;;;;;6.30;2.72;;;4.70;99.90;;;;;;5183853;28;20020;-75
2022/03/17 11:50:43;;;;;;;13.88;3.72;;;4.70;99.90;;;;;;5184393;28;20068;-74
2022/03/17 11:53:14;;;;;;;11.30;3.70;;;4.70;99.90;;;;;;5167198;28;20034;-76
2022/03/17 11:55:45;;;;;;;8.98;2.80;;;4.80;99.90;;;;;;5184725;28;20071;-76
2022/03/17 11:58:37;;;;;;;11.20;2.72;;;4.70;99.90;;;;;;5167043;28;20026;-75
2022/03/17 12:01:29;;;;;;;12.32;2.85;;;4.80;99.90;;;;;;5184880;28;20124;-75
2022/03/17 12:04:03;;;;;;;9.27;3.38;;;4.70;99.90;;;;;;5182412;28;20064;-76
2022/03/17 12:06:39;;;;;;;9.93;3.15;;;4.60;99.90;;;;;;5181908;28;20398;-75
2022/03/17 12:09:11;;;;;;;11.27;2.55;;;4.60;99.90;;;;;;5167128;28;20038;-73
2022/03/17 12:11:47;;;;;;;8.30;2.47;;;4.70;99.90;;;;;;5184656;28;20022;-75
2022/03/17 12:14:27;;;;;;;8.05;2.65;;;4.70;99.90;;;;;;5184736;28;20033;-73
2022/03/17 12:17:09;;;;;;;11.18;2.80;;;4.50;99.90;;;;;;5184229;28;20026;-77
2022/03/17 12:19:48;;;;;;;9.38;2.72;;;4.60;99.90;;;;;;5165455;28;20054;-76
2022/03/17 12:22:32;;;;;;;12.73;3.38;;;4.50;99.90;;;;;;5167057;28;20045;-76
2022/03/17 12:25:13;;;;;;;7.93;2.80;;;4.60;99.90;;;;;;5182398;28;20493;-76
2022/03/17 12:27:53;;;;;;;8.30;2.92;;;4.60;99.90;;;;;;5166429;28;20045;-76
2022/03/17 12:30:26;;;;;;;8.10;3.17;;;4.80;99.90;;;;;;5184041;28;20477;-76
2022/03/17 12:33:06;;;;;;;10.38;2.90;;;4.50;99.90;;;;;;5184023;28;20033;-74
2022/03/17 12:35:40;;;;;;;;;;;4.60;99.90;;;;;;5183911;28;20014;-74
2022/03/17 12:38:11;;;;;;;5.13;2.05;;;4.50;99.90;;;;;;5184106;28;19920;-76
2022/03/17 12:40:44;;;;;;;5.35;2.10;;;4.60;99.90;;;;;;5183784;28;20482;-75
2022/03/17 12:43:21;;;;;;;8.18;2.80;;;4.50;99.90;;;;;;5183745;28;20030;-73
2022/03/17 12:45:52;;;;;;;13.18;3.25;;;4.60;99.90;;;;;;5183788;28;20030;-75
2022/03/17 12:48:25;;;;;;;8.38;2.70;;;4.70;99.90;;;;;;5184047;28;20022;-75
2022/03/17 12:51:05;;;;;;;14.65;3.00;;;4.50;99.90;;;;;;5183636;28;20026;-74
2022/03/17 12:53:36;;;;;;;11.10;2.65;;;4.40;99.90;;;;;;5166182;28;20052;-74
2022/03/17 12:56:07;;;;;;;9.23;3.10;;;4.40;99.90;;;;;;5183690;28;20104;-74
2022/03/17 12:58:41;;;;;;;7.57;2.58;;;4.50;99.90;;;;;;5165303;28;20029;-75
2022/03/17 13:01:15;;;;;;;5.55;2.85;;;4.50;99.90;;;;;;5166256;28;20843;-75
2022/03/17 13:03:48;;;;;;;11.13;3.58;;;4.40;99.90;;;;;;5183353;28;20057;-75
2022/03/17 13:09:11;;;;;;;9.60;4.32;;;4.50;99.90;;;;;;5182196;28;20041;-75
2022/03/17 13:14:31;;;;;;;24.33;14.13;;;4.50;99.90;;;;;;5181932;28;20108;-76
2022/03/17 13:17:04;;;;;;;19.33;7.03;;;4.80;99.90;;;;;;5183865;28;20080;-76
2022/03/17 13:19:51;;;;;;;14.35;7.20;;;4.50;99.90;;;;;;5182819;28;20049;-75
2022/03/17 13:22:25;;;;;;;11.60;4.55;;;4.40;99.90;;;;;;5165588;28;20022;-74
2022/03/17 13:25:10;;;;;;;12.60;3.67;;;4.50;99.90;;;;;;5182952;28;20037;-74
2022/03/17 13:27:43;;;;;;;11.80;4.00;;;4.30;99.90;;;;;;5182365;28;20109;-72